createdAt,value
2023-05-24T00:00:06.346Z,10.57
2023-05-24T00:02:33.261Z,8.38
2023-05-24T00:05:01.530Z,8.45
2023-05-24T00:07:28.489Z,11.25
2023-05-24T00:09:55.569Z,10.93
2023-05-24T00:12:22.333Z,17.27
2023-05-24T00:14:49.516Z,9.57
2023-05-24T00:17:16.466Z,9.70
2023-05-24T00:19:43.689Z,9.60
2023-05-24T00:22:10.445Z,9.65
2023-05-24T00:24:37.234Z,9.98
2023-05-24T00:27:04.502Z,8.73
2023-05-24T00:29:32.424Z,9.90
2023-05-24T00:32:00.491Z,12.52
2023-05-24T00:34:27.367Z,11.60
2023-05-24T00:36:54.231Z,9.48
2023-05-24T00:39:21.241Z,10.95
2023-05-24T00:41:48.227Z,12.65
2023-05-24T00:44:15.476Z,11.45
2023-05-24T00:46:42.385Z,10.45
2023-05-24T00:49:09.780Z,11.57
2023-05-24T00:51:38.547Z,12.00
2023-05-24T00:54:06.931Z,12.80
2023-05-24T00:56:34.179Z,12.02
2023-05-24T00:59:02.045Z,11.25
2023-05-24T01:01:30.995Z,11.13
2023-05-24T01:03:59.672Z,11.02
2023-05-24T01:06:28.197Z,13.05
2023-05-24T01:09:20.047Z,12.25
2023-05-24T01:11:55.960Z,15.10
2023-05-24T01:14:40.031Z,15.00
2023-05-24T01:17:15.174Z,16.47
2023-05-24T01:19:51.287Z,12.65
2023-05-24T01:22:35.026Z,12.07
2023-05-24T01:25:13.115Z,13.00
2023-05-24T01:27:40.995Z,12.07
2023-05-24T01:30:08.324Z,10.80
2023-05-24T01:32:35.549Z,10.90
2023-05-24T01:35:02.419Z,14.43
2023-05-24T01:37:29.222Z,12.15
2023-05-24T01:39:56.197Z,12.20
2023-05-24T01:42:32.721Z,13.30
2023-05-24T01:45:14.588Z,13.57
2023-05-24T01:47:53.876Z,13.57
2023-05-24T01:50:27.017Z,15.77
2023-05-24T01:52:58.863Z,12.10
2023-05-24T01:55:27.231Z,12.35
2023-05-24T01:57:58.864Z,11.73
2023-05-24T02:00:26.791Z,15.50
2023-05-24T02:02:55.089Z,14.17
2023-05-24T02:05:22.050Z,11.98
2023-05-24T02:07:48.846Z,14.00
2023-05-24T02:10:16.029Z,11.30
2023-05-24T02:12:42.821Z,13.57
2023-05-24T02:15:14.861Z,14.02
2023-05-24T02:17:43.332Z,11.52
2023-05-24T02:20:11.040Z,13.68
2023-05-24T02:22:38.661Z,17.50
2023-05-24T02:25:06.616Z,12.13
2023-05-24T02:27:33.878Z,12.00
2023-05-24T02:30:00.721Z,12.50
2023-05-24T02:32:27.476Z,13.38
2023-05-24T02:34:54.244Z,11.52
2023-05-24T02:37:21.068Z,11.35
2023-05-24T02:39:47.943Z,12.50
2023-05-24T02:42:14.987Z,12.23
2023-05-24T02:44:42.864Z,12.50
2023-05-24T02:47:09.761Z,14.90
2023-05-24T02:49:36.520Z,15.65
2023-05-24T02:52:03.530Z,12.20
2023-05-24T02:54:30.568Z,12.07
2023-05-24T02:56:58.095Z,13.43
2023-05-24T02:59:25.573Z,16.40
2023-05-24T03:01:52.513Z,12.63
2023-05-24T03:04:19.421Z,12.13
2023-05-24T03:06:47.280Z,11.77
2023-05-24T03:09:16.808Z,14.00
2023-05-24T03:11:44.404Z,13.45
2023-05-24T03:14:11.367Z,14.63
2023-05-24T03:16:40.781Z,14.23
2023-05-24T03:19:09.895Z,18.35
2023-05-24T03:21:37.556Z,14.52
2023-05-24T03:24:04.967Z,12.73
2023-05-24T03:26:32.316Z,15.10
2023-05-24T03:28:59.092Z,16.20
2023-05-24T03:31:31.895Z,17.63
2023-05-24T03:33:58.719Z,16.83
2023-05-24T03:36:29.065Z,14.20
2023-05-24T03:38:58.503Z,14.40
2023-05-24T03:41:27.642Z,19.47
2023-05-24T03:43:58.256Z,15.95
2023-05-24T03:46:27.036Z,16.65
2023-05-24T03:48:55.274Z,17.37
2023-05-24T03:51:24.459Z,17.45
2023-05-24T03:53:51.268Z,17.23
2023-05-24T03:56:18.050Z,15.93
2023-05-24T03:58:44.831Z,15.90
2023-05-24T04:01:21.989Z,16.27
2023-05-24T04:03:57.432Z,16.90
2023-05-24T04:06:29.272Z,17.43
2023-05-24T04:08:58.175Z,18.33
2023-05-24T04:11:28.511Z,17.77
2023-05-24T04:13:57.336Z,23.03
2023-05-24T04:16:24.606Z,19.70
2023-05-24T04:18:51.701Z,16.17
2023-05-24T04:21:18.578Z,18.20
2023-05-24T04:23:45.971Z,20.27
2023-05-24T04:26:13.565Z,18.07
2023-05-24T04:28:41.168Z,16.55
2023-05-24T04:31:09.882Z,14.53
2023-05-24T04:33:39.291Z,15.53
2023-05-24T04:36:06.430Z,18.23
2023-05-24T04:38:34.727Z,14.90
2023-05-24T04:41:02.088Z,14.00
2023-05-24T04:43:28.889Z,14.50
2023-05-24T04:45:55.920Z,13.90
2023-05-24T04:48:24.506Z,14.17
2023-05-24T04:50:52.573Z,13.70
2023-05-24T04:53:22.282Z,13.35
2023-05-24T04:55:49.798Z,11.43
2023-05-24T04:58:17.162Z,10.45
2023-05-24T05:00:44.844Z,8.18
2023-05-24T05:03:11.806Z,9.23
2023-05-24T05:05:38.777Z,11.47
2023-05-24T05:08:07.149Z,9.07
2023-05-24T05:10:33.904Z,9.83
2023-05-24T05:13:00.770Z,9.97
2023-05-24T05:15:27.823Z,8.60
2023-05-24T05:17:54.614Z,8.57
2023-05-24T05:20:21.469Z,9.13
2023-05-24T05:22:48.956Z,8.20
2023-05-24T05:25:15.963Z,7.90
2023-05-24T05:27:42.788Z,10.03
2023-05-24T05:30:09.985Z,8.70
2023-05-24T05:32:37.341Z,9.50
2023-05-24T05:35:05.068Z,8.10
2023-05-24T05:37:31.900Z,10.70
2023-05-24T05:39:58.686Z,10.50
2023-05-24T05:42:25.678Z,8.10
2023-05-24T05:44:52.850Z,7.77
2023-05-24T05:47:19.741Z,10.73
2023-05-24T05:49:46.658Z,8.20
2023-05-24T05:52:13.547Z,8.80
2023-05-24T05:54:40.332Z,9.43
2023-05-24T05:57:10.516Z,9.65
2023-05-24T05:59:38.450Z,9.23
2023-05-24T06:02:06.815Z,10.13
2023-05-24T06:04:34.325Z,9.13
2023-05-24T06:07:01.415Z,8.80
2023-05-24T06:09:28.306Z,11.50
2023-05-24T06:11:55.224Z,8.43
2023-05-24T06:14:22.488Z,8.87
2023-05-24T06:16:49.677Z,9.88
2023-05-24T06:19:17.082Z,9.87
2023-05-24T06:21:48.588Z,7.40
2023-05-24T06:24:20.464Z,12.53
2023-05-24T06:26:48.436Z,13.13
2023-05-24T06:29:15.444Z,14.23
2023-05-24T06:31:43.525Z,12.23
2023-05-24T06:34:10.673Z,14.40
2023-05-24T06:36:41.599Z,12.50
2023-05-24T06:39:13.115Z,12.13
2023-05-24T06:41:39.936Z,11.88
2023-05-24T06:44:06.820Z,13.25
2023-05-24T06:46:34.483Z,14.77
2023-05-24T06:49:01.390Z,14.27
2023-05-24T06:51:28.720Z,13.50
2023-05-24T06:53:55.623Z,15.30
2023-05-24T06:56:23.267Z,14.48
2023-05-24T06:58:50.033Z,12.10
2023-05-24T07:01:17.227Z,14.30
2023-05-24T07:03:44.404Z,16.83
2023-05-24T07:06:14.208Z,16.08
2023-05-24T07:08:44.253Z,16.20
2023-05-24T07:11:11.290Z,14.93
2023-05-24T07:13:38.255Z,16.40
2023-05-24T07:16:06.610Z,18.77
2023-05-24T07:18:33.387Z,16.65
2023-05-24T07:21:01.130Z,15.38
2023-05-24T07:23:28.225Z,14.50
2023-05-24T07:25:55.061Z,16.17
2023-05-24T07:28:21.920Z,14.32
2023-05-24T07:30:48.958Z,13.63
2023-05-24T07:33:16.792Z,15.98
2023-05-24T07:35:45.875Z,16.65
2023-05-24T07:38:12.857Z,15.82
2023-05-24T07:40:39.724Z,14.93
2023-05-24T07:43:06.842Z,14.25
2023-05-24T07:45:33.937Z,13.68
2023-05-24T07:48:01.876Z,13.32
2023-05-24T07:50:29.423Z,14.75
2023-05-24T07:52:57.347Z,15.38
2023-05-24T07:55:24.084Z,16.42
2023-05-24T07:57:50.992Z,14.43
2023-05-24T08:00:18.455Z,18.17
2023-05-24T08:02:46.478Z,17.50
2023-05-24T08:05:14.024Z,16.90
2023-05-24T08:07:42.080Z,17.90
2023-05-24T08:10:14.589Z,19.20
2023-05-24T08:12:42.626Z,16.90
2023-05-24T08:15:10.026Z,15.13
2023-05-24T08:17:38.623Z,14.23
2023-05-24T08:20:10.026Z,14.80
2023-05-24T08:22:37.752Z,21.98
2023-05-24T08:25:06.286Z,14.10
2023-05-24T08:27:33.061Z,14.80
2023-05-24T08:29:59.823Z,18.25
2023-05-24T08:32:26.994Z,15.57
2023-05-24T08:35:03.612Z,12.55
2023-05-24T08:37:37.872Z,14.23
2023-05-24T08:40:05.230Z,12.65
2023-05-24T08:42:32.269Z,12.02
2023-05-24T08:45:04.564Z,10.48
2023-05-24T08:47:32.471Z,13.35
2023-05-24T08:49:59.891Z,12.35
2023-05-24T08:52:28.028Z,17.55
2023-05-24T08:54:55.500Z,12.23
2023-05-24T08:57:22.717Z,13.15
2023-05-24T08:59:49.657Z,12.23
2023-05-24T09:02:17.725Z,11.93
2023-05-24T09:04:48.698Z,11.45
2023-05-24T09:07:18.430Z,12.40
2023-05-24T09:09:57.270Z,11.85
2023-05-24T09:12:36.627Z,12.68
2023-05-24T09:15:06.188Z,13.85
2023-05-24T09:17:34.417Z,11.27
2023-05-24T09:20:01.538Z,16.95
2023-05-24T09:22:30.874Z,11.60
2023-05-24T09:25:01.842Z,11.50
2023-05-24T09:27:31.839Z,11.02
2023-05-24T09:29:58.750Z,13.40
2023-05-24T09:32:25.870Z,12.05
2023-05-24T09:34:54.098Z,12.57
2023-05-24T09:37:28.237Z,17.23
2023-05-24T09:39:58.473Z,13.07
2023-05-24T09:42:28.641Z,12.23
2023-05-24T09:45:07.779Z,13.70
2023-05-24T09:47:36.058Z,14.60
2023-05-24T09:50:04.466Z,12.52
2023-05-24T09:52:33.159Z,11.52
2023-05-24T09:55:00.916Z,11.30
2023-05-24T09:57:28.315Z,12.07
2023-05-24T09:59:55.526Z,16.77
2023-05-24T10:02:23.982Z,8.80
2023-05-24T10:05:00.830Z,10.10
2023-05-24T10:07:27.692Z,11.30
2023-05-24T10:09:55.733Z,13.05
2023-05-24T10:12:23.312Z,11.93
2023-05-24T10:14:52.429Z,10.27
2023-05-24T10:17:19.873Z,10.02
2023-05-24T10:19:46.651Z,9.02
2023-05-24T10:22:15.938Z,13.05
2023-05-24T10:24:53.742Z,10.57
2023-05-24T10:27:24.961Z,14.13
2023-05-24T10:30:16.529Z,12.70
2023-05-24T10:32:45.672Z,11.63
2023-05-24T10:35:14.960Z,10.60
2023-05-24T10:37:43.270Z,11.95
2023-05-24T10:40:20.900Z,9.68
2023-05-24T10:42:48.484Z,9.75
2023-05-24T10:45:27.498Z,11.70
2023-05-24T10:47:54.741Z,11.90
2023-05-24T10:50:22.401Z,10.57
2023-05-24T10:52:49.720Z,13.27
2023-05-24T10:55:19.765Z,10.65
2023-05-24T10:57:46.645Z,13.80
2023-05-24T11:03:04.123Z,13.38
2023-05-24T11:05:36.575Z,12.90
2023-05-24T11:08:06.755Z,22.67
2023-05-24T11:10:35.759Z,13.07
2023-05-24T11:13:03.445Z,15.38
2023-05-24T11:15:30.664Z,13.75
2023-05-24T11:18:09.722Z,11.23
2023-05-24T11:20:36.873Z,13.07
2023-05-24T11:23:04.529Z,17.55
2023-05-24T11:25:33.138Z,22.20
2023-05-24T11:28:02.084Z,16.90
2023-05-24T11:30:29.021Z,14.35
2023-05-24T11:32:57.160Z,35.80
2023-05-24T11:35:27.842Z,17.30
2023-05-24T11:37:54.816Z,16.58
2023-05-24T11:40:21.641Z,15.80
2023-05-24T11:42:50.577Z,15.30
2023-05-24T11:45:18.785Z,15.80
2023-05-24T11:47:45.828Z,15.35
2023-05-24T11:50:16.687Z,17.15
2023-05-24T11:52:44.240Z,18.02
2023-05-24T11:55:16.429Z,22.05
2023-05-24T11:57:52.895Z,17.08
2023-05-24T12:00:26.619Z,20.20
2023-05-24T12:02:57.273Z,20.98
2023-05-24T12:05:24.361Z,17.25
2023-05-24T12:08:02.518Z,19.92
2023-05-24T12:10:29.265Z,17.17
2023-05-24T12:12:57.423Z,21.83
2023-05-24T12:15:24.461Z,21.77
2023-05-24T12:17:52.203Z,18.52
2023-05-24T12:20:22.352Z,22.90
2023-05-24T12:22:52.881Z,18.08
2023-05-24T12:25:21.392Z,21.08
2023-05-24T12:27:57.445Z,21.30
2023-05-24T12:30:28.345Z,18.90
2023-05-24T12:32:55.672Z,14.80
2023-05-24T12:35:22.943Z,18.48
2023-05-24T12:37:50.392Z,16.98
2023-05-24T12:40:20.776Z,26.08
2023-05-24T12:42:51.926Z,16.08
2023-05-24T12:45:26.070Z,37.80
2023-05-24T12:47:56.545Z,37.22
2023-05-24T12:50:25.866Z,18.10
2023-05-24T12:52:53.958Z,23.55
2023-05-24T12:55:23.578Z,17.83
2023-05-24T12:57:56.274Z,29.52
2023-05-24T13:00:28.149Z,22.00
2023-05-24T13:02:58.955Z,18.98
2023-05-24T13:05:27.701Z,48.58
2023-05-24T13:07:56.655Z,23.42
2023-05-24T13:10:25.122Z,21.88
2023-05-24T13:12:51.996Z,19.23
2023-05-24T13:15:19.778Z,22.27
2023-05-24T13:17:47.548Z,27.17
2023-05-24T13:20:14.409Z,20.00
2023-05-24T13:22:41.233Z,21.05
2023-05-24T13:25:10.044Z,21.55
2023-05-24T13:27:36.909Z,18.30
2023-05-24T13:30:04.831Z,19.60
2023-05-24T13:32:31.916Z,17.08
2023-05-24T13:34:59.261Z,21.95
2023-05-24T13:37:26.070Z,20.58
2023-05-24T13:39:52.918Z,19.13
2023-05-24T13:42:20.023Z,19.55
2023-05-24T13:44:46.882Z,19.80
2023-05-24T13:47:40.612Z,20.20
2023-05-24T13:50:00.734Z,20.55
2023-05-24T13:52:27.537Z,22.92
2023-05-24T13:54:54.412Z,19.23
2023-05-24T13:57:24.027Z,20.20
2023-05-24T13:59:52.478Z,23.02
2023-05-24T14:02:19.296Z,23.75
2023-05-24T14:04:46.170Z,19.52
2023-05-24T14:07:15.698Z,26.60
2023-05-24T14:09:42.681Z,26.50
2023-05-24T14:12:09.798Z,19.58
2023-05-24T14:14:59.283Z,16.90
2023-05-24T14:17:23.821Z,20.05
2023-05-24T14:19:50.876Z,19.75
2023-05-24T14:22:18.007Z,16.13
2023-05-24T14:24:44.982Z,21.75
2023-05-24T14:27:11.889Z,16.65
2023-05-24T14:29:38.702Z,19.77
2023-05-24T14:32:05.849Z,16.63
2023-05-24T14:34:32.929Z,13.50
2023-05-24T14:36:59.885Z,16.48
2023-05-24T14:39:26.871Z,17.60
2023-05-24T14:41:53.732Z,15.48
2023-05-24T14:44:20.823Z,16.67
2023-05-24T14:46:47.918Z,21.27
2023-05-24T14:49:15.242Z,18.23
2023-05-24T14:51:42.150Z,16.70
2023-05-24T14:54:11.336Z,28.88
2023-05-24T14:56:38.206Z,20.35
2023-05-24T14:59:05.137Z,25.40
2023-05-24T15:01:31.944Z,16.67
2023-05-24T15:03:59.065Z,21.83
2023-05-24T15:06:26.022Z,15.25
2023-05-24T15:08:52.951Z,19.30
2023-05-24T15:11:19.908Z,18.85
2023-05-24T15:13:46.856Z,21.58
2023-05-24T15:16:13.992Z,15.10
2023-05-24T15:18:40.822Z,16.33
2023-05-24T15:21:07.709Z,14.18
2023-05-24T15:23:34.486Z,17.23
2023-05-24T15:26:01.995Z,17.10
2023-05-24T15:28:28.852Z,16.33
2023-05-24T15:30:57.041Z,15.05
2023-05-24T15:33:23.868Z,15.50
2023-05-24T15:35:50.905Z,16.63
2023-05-24T15:38:18.661Z,15.70
2023-05-24T15:40:46.329Z,17.00
2023-05-24T15:43:15.534Z,17.10
2023-05-24T15:45:43.848Z,17.67
2023-05-24T15:48:10.836Z,23.73
2023-05-24T15:53:11.698Z,14.88
2023-05-24T15:55:39.094Z,18.67
2023-05-24T15:58:06.137Z,18.65
2023-05-24T16:00:33.121Z,16.95
2023-05-24T16:03:00.110Z,16.75
2023-05-24T16:05:28.425Z,17.45
2023-05-24T16:07:55.624Z,14.50
2023-05-24T16:10:22.418Z,16.20
2023-05-24T16:12:49.361Z,13.32
2023-05-24T16:15:16.291Z,15.30
2023-05-24T16:17:44.830Z,17.10
2023-05-24T16:20:11.747Z,15.02
2023-05-24T16:22:48.931Z,14.93
2023-05-24T16:25:16.193Z,15.00
2023-05-24T16:27:43.081Z,15.32
2023-05-24T16:30:10.177Z,14.40
2023-05-24T16:32:37.118Z,22.95
2023-05-24T16:35:05.568Z,15.43
2023-05-24T16:37:32.426Z,16.05
2023-05-24T16:39:59.304Z,12.05
2023-05-24T16:42:26.107Z,16.25
2023-05-24T16:44:53.004Z,13.32
2023-05-24T16:47:19.837Z,17.63
2023-05-24T16:49:46.825Z,19.20
2023-05-24T16:52:13.757Z,17.38
2023-05-24T16:54:40.567Z,17.63
2023-05-24T16:57:07.599Z,16.77
2023-05-24T16:59:34.430Z,13.20
2023-05-24T17:02:01.346Z,15.82
2023-05-24T17:04:28.172Z,16.15
2023-05-24T17:06:54.942Z,19.65
2023-05-24T17:09:21.796Z,13.30
2023-05-24T17:11:50.626Z,18.00
2023-05-24T17:14:17.912Z,14.23
2023-05-24T17:16:44.865Z,24.55
2023-05-24T17:19:13.898Z,21.88
2023-05-24T17:21:40.959Z,20.65
2023-05-24T17:24:07.757Z,19.55
2023-05-24T17:26:34.692Z,25.33
2023-05-24T17:29:02.295Z,21.13
2023-05-24T17:31:29.089Z,28.27
2023-05-24T17:33:57.612Z,26.55
2023-05-24T17:36:24.368Z,23.92
2023-05-24T17:38:52.622Z,24.50
2023-05-24T17:41:19.451Z,23.17
2023-05-24T17:43:46.212Z,26.95
2023-05-24T17:46:13.632Z,24.50
2023-05-24T17:48:41.245Z,31.48
2023-05-24T17:51:09.462Z,27.60
2023-05-24T17:53:38.167Z,27.45
2023-05-24T17:56:06.881Z,28.40
2023-05-24T17:58:36.834Z,33.97
2023-05-24T18:01:08.337Z,25.17
2023-05-24T18:03:39.387Z,28.33
2023-05-24T18:06:07.390Z,31.90
2023-05-24T18:08:39.104Z,27.30
2023-05-24T18:11:09.745Z,31.40
2023-05-24T18:13:41.906Z,28.67
2023-05-24T18:16:10.512Z,26.67
2023-05-24T18:18:41.061Z,25.80
2023-05-24T18:21:09.652Z,26.50
2023-05-24T18:23:39.704Z,25.77
2023-05-24T18:26:10.848Z,26.20
2023-05-24T18:28:38.796Z,26.05
2023-05-24T18:31:14.595Z,30.90
2023-05-24T18:33:42.089Z,26.38
2023-05-24T18:36:09.146Z,27.25
2023-05-24T18:38:37.081Z,24.35
2023-05-24T18:41:06.253Z,26.95
2023-05-24T18:43:33.666Z,25.85
2023-05-24T18:46:01.056Z,26.30
2023-05-24T18:48:29.270Z,24.90
2023-05-24T18:50:56.084Z,26.23
2023-05-24T18:53:22.883Z,25.05
2023-05-24T18:55:49.672Z,25.55
2023-05-24T18:58:16.484Z,28.02
2023-05-24T19:00:43.305Z,26.75
2023-05-24T19:03:12.151Z,33.15
2023-05-24T19:05:42.576Z,26.73
2023-05-24T19:08:10.887Z,36.60
2023-05-24T19:10:37.774Z,24.65
2023-05-24T19:13:06.517Z,28.25
2023-05-24T19:15:35.407Z,28.10
2023-05-24T19:18:02.692Z,33.50
2023-05-24T19:20:29.528Z,33.78
2023-05-24T19:22:56.543Z,24.70
2023-05-24T19:25:23.268Z,36.03
2023-05-24T19:27:59.101Z,29.37
2023-05-24T19:30:27.161Z,32.97
2023-05-24T19:32:53.915Z,34.57
2023-05-24T19:35:21.117Z,29.73
2023-05-24T19:37:47.952Z,45.25
2023-05-24T19:40:14.845Z,31.50
2023-05-24T19:42:41.768Z,33.17
2023-05-24T19:45:09.667Z,30.80
2023-05-24T19:47:36.771Z,29.13
2023-05-24T19:50:03.772Z,28.70
2023-05-24T19:52:30.533Z,28.83
2023-05-24T19:54:57.427Z,29.70
2023-05-24T19:57:24.227Z,46.23
2023-05-24T19:59:51.130Z,33.10
2023-05-24T20:02:18.153Z,29.43
2023-05-24T20:04:44.981Z,27.13
2023-05-24T20:07:12.044Z,27.50
2023-05-24T20:09:39.040Z,29.73
2023-05-24T20:12:06.361Z,32.30
2023-05-24T20:14:33.601Z,32.93
2023-05-24T20:17:01.280Z,34.00
2023-05-24T20:19:28.389Z,30.07
2023-05-24T20:21:55.254Z,40.00
2023-05-24T20:24:22.061Z,34.23
2023-05-24T20:26:49.125Z,27.67
2023-05-24T20:29:16.004Z,28.85
2023-05-24T20:31:43.026Z,31.23
2023-05-24T20:34:09.952Z,28.40
2023-05-24T20:36:37.108Z,64.30
2023-05-24T20:39:04.416Z,51.47
2023-05-24T20:41:31.375Z,43.20
2023-05-24T20:43:58.295Z,33.17
2023-05-24T20:46:25.550Z,31.77
2023-05-24T20:48:53.993Z,27.88
2023-05-24T20:51:23.151Z,29.63
2023-05-24T20:53:52.240Z,36.87
2023-05-24T20:56:20.452Z,33.13
2023-05-24T20:58:49.223Z,31.60
2023-05-24T21:01:16.776Z,37.37
2023-05-24T21:03:43.801Z,29.98
2023-05-24T21:06:10.908Z,32.05
2023-05-24T21:08:38.455Z,39.83
2023-05-24T21:11:05.482Z,31.10
2023-05-24T21:13:32.430Z,29.77
2023-05-24T21:15:59.383Z,29.83
2023-05-24T21:18:26.207Z,34.07
2023-05-24T21:20:52.965Z,30.63
2023-05-24T21:23:19.863Z,30.93
2023-05-24T21:25:46.599Z,30.53
2023-05-24T21:28:14.178Z,30.33
2023-05-24T21:30:41.237Z,32.40
2023-05-24T21:33:08.296Z,34.13
2023-05-24T21:35:35.135Z,36.83
2023-05-24T21:38:02.018Z,42.90
2023-05-24T21:40:28.991Z,40.97
2023-05-24T21:42:55.696Z,33.20
2023-05-24T21:45:22.566Z,36.03
2023-05-24T21:47:49.594Z,36.93
2023-05-24T21:50:16.481Z,37.00
2023-05-24T21:52:43.347Z,34.10
2023-05-24T21:55:10.228Z,31.23
2023-05-24T21:57:37.052Z,38.60
2023-05-24T22:00:05.275Z,34.67
2023-05-24T22:02:32.577Z,32.73
2023-05-24T22:04:59.372Z,35.00
2023-05-24T22:07:26.286Z,34.00
2023-05-24T22:09:53.070Z,33.92
2023-05-24T22:12:19.911Z,35.87
2023-05-24T22:14:46.783Z,37.23
2023-05-24T22:17:14.304Z,32.95
2023-05-24T22:19:41.409Z,32.35
2023-05-24T22:22:09.961Z,33.85
2023-05-24T22:24:36.918Z,29.13
2023-05-24T22:27:04.953Z,33.93
2023-05-24T22:29:31.744Z,31.63
2023-05-24T22:31:58.761Z,31.00
2023-05-24T22:34:28.855Z,31.53
2023-05-24T22:36:57.636Z,36.00
2023-05-24T22:39:24.919Z,36.08
2023-05-24T22:41:52.732Z,38.83
2023-05-24T22:44:19.844Z,34.95
2023-05-24T22:46:50.292Z,34.37
2023-05-24T22:49:20.155Z,35.70
2023-05-24T22:51:48.180Z,37.83
2023-05-24T22:54:15.786Z,30.80
2023-05-24T22:56:43.564Z,33.80
2023-05-24T22:59:11.313Z,35.83
2023-05-24T23:01:38.489Z,33.33
2023-05-24T23:04:19.831Z,39.27
2023-05-24T23:06:49.056Z,31.17
2023-05-24T23:09:17.702Z,30.60
2023-05-24T23:11:44.480Z,31.50
2023-05-24T23:14:11.738Z,25.40
2023-05-24T23:16:45.224Z,29.37
2023-05-24T23:19:18.593Z,28.20
2023-05-24T23:21:46.158Z,25.40
2023-05-24T23:24:14.734Z,25.43
2023-05-24T23:26:42.390Z,25.23
2023-05-24T23:29:09.393Z,23.97
2023-05-24T23:31:36.655Z,24.67
2023-05-24T23:34:04.574Z,23.30
2023-05-24T23:36:31.611Z,23.77
2023-05-24T23:38:58.446Z,23.13
2023-05-24T23:41:26.457Z,23.23
2023-05-24T23:43:53.296Z,26.73
2023-05-24T23:46:20.069Z,30.27
2023-05-24T23:48:46.863Z,26.83
2023-05-24T23:51:13.672Z,24.90
2023-05-24T23:53:40.447Z,27.50
2023-05-24T23:56:07.298Z,28.40
2023-05-24T23:58:34.165Z,30.23
